Time;durP1;ratioP1;P1;durP2;ratioP2;P2;SDS_P1;SDS_P2;PMS_P1;PMS_P2;Temp;Humidity;BMP_temperature;BMP_pressure;BME280_temperature;BME280_humidity;BME280_pressure;Samples;Min_cycle;Max_cycle;Signal;HPM_P1;HPM_P2
2022/02/24 00:00:26;;;;;;;15.32;5.57;;;8.70;71.40;;;;;;4962289;28;20042;-78
2022/02/24 00:02:52;;;;;;;13.98;5.53;;;8.60;71.70;;;;;;4975477;28;20046;-78
2022/02/24 00:05:18;;;;;;;14.13;6.10;;;8.60;71.90;;;;;;4961672;28;20043;-77
2022/02/24 00:07:44;;;;;;;18.48;7.00;;;8.60;71.90;;;;;;4965377;28;20037;-78
2022/02/24 00:10:13;;;;;;;18.00;6.30;;;8.60;72.00;;;;;;4976411;28;20496;-76
2022/02/24 00:12:39;;;;;;;16.17;6.10;;;8.60;72.10;;;;;;4979190;28;20034;-78
2022/02/24 00:15:07;;;;;;;13.90;6.18;;;8.60;72.20;;;;;;4965016;28;20897;-77
2022/02/24 00:17:34;;;;;;;19.23;6.10;;;8.60;72.50;;;;;;4996762;28;20053;-82
2022/02/24 00:20:00;;;;;;;12.68;5.40;;;8.60;72.50;;;;;;4976363;28;20106;-77
2022/02/24 00:22:31;;;;;;;15.30;5.55;;;8.60;72.50;;;;;;4962943;28;20031;-77
2022/02/24 00:24:57;;;;;;;15.15;5.80;;;8.60;72.70;;;;;;4964028;28;20043;-77
2022/02/24 00:27:23;;;;;;;17.67;5.93;;;8.60;72.80;;;;;;4969373;28;20233;-78
2022/02/24 00:29:49;;;;;;;16.45;6.13;;;8.60;72.80;;;;;;4980564;28;20045;-79
2022/02/24 00:32:14;;;;;;;15.18;5.53;;;8.60;72.90;;;;;;4964946;28;20158;-79
2022/02/24 00:34:40;;;;;;;15.18;5.10;;;8.60;72.90;;;;;;4963083;28;20042;-79
2022/02/24 00:37:06;;;;;;;19.55;5.80;;;8.60;73.00;;;;;;4963200;28;20491;-80
2022/02/24 00:39:32;;;;;;;17.88;6.38;;;8.60;73.00;;;;;;4970905;28;20523;-79
2022/02/24 00:41:58;;;;;;;16.35;5.78;;;8.60;73.20;;;;;;4969394;28;20490;-76
2022/02/24 00:44:24;;;;;;;19.45;6.13;;;8.60;73.30;;;;;;4962452;28;20039;-77
2022/02/24 00:46:50;;;;;;;16.25;5.50;;;8.50;73.40;;;;;;4969342;28;20045;-77
2022/02/24 00:49:16;;;;;;;18.33;5.50;;;8.50;73.40;;;;;;4961866;28;20069;-77
2022/02/24 00:51:42;;;;;;;17.48;5.32;;;8.60;73.30;;;;;;4963229;28;20497;-80
2022/02/24 00:54:08;;;;;;;15.85;5.03;;;8.60;73.50;;;;;;4945275;28;20042;-78
2022/02/24 00:56:34;;;;;;;12.45;4.85;;;8.60;73.30;;;;;;4962870;28;20039;-77
2022/02/24 00:58:59;;;;;;;11.45;4.70;;;8.60;73.50;;;;;;4966123;28;20097;-79
2022/02/24 01:01:25;;;;;;;18.02;5.65;;;8.60;73.40;;;;;;4963355;28;20545;-77
2022/02/24 01:03:51;;;;;;;12.75;4.82;;;8.60;73.40;;;;;;4963486;28;20058;-79
2022/02/24 01:06:17;;;;;;;15.73;5.20;;;8.60;73.50;;;;;;4961913;28;20121;-78
2022/02/24 01:08:43;;;;;;;12.20;4.28;;;8.60;73.50;;;;;;4944671;28;20031;-77
2022/02/24 01:11:09;;;;;;;15.70;5.07;;;8.60;73.30;;;;;;4959320;28;20123;-79
2022/02/24 01:13:34;;;;;;;16.85;4.65;;;8.60;73.40;;;;;;4962474;28;20554;-79
2022/02/24 01:16:00;;;;;;;15.13;4.80;;;8.60;73.50;;;;;;4968098;28;20051;-79
2022/02/24 01:18:28;;;;;;;13.10;4.80;;;8.60;73.40;;;;;;4971120;28;20050;-78
2022/02/24 01:20:54;;;;;;;15.90;4.72;;;8.60;73.30;;;;;;4978338;28;20042;-78
2022/02/24 01:23:19;;;;;;;16.05;4.95;;;8.60;73.30;;;;;;4977713;28;20037;-79
2022/02/24 01:25:45;;;;;;;16.10;4.70;;;8.60;73.40;;;;;;4972835;28;20523;-79
2022/02/24 01:28:11;;;;;;;10.77;4.22;;;8.60;73.60;;;;;;4971145;28;20034;-77
2022/02/24 01:30:37;;;;;;;22.10;5.20;;;8.60;73.60;;;;;;4978438;28;20038;-78
2022/02/24 01:33:02;;;;;;;14.90;5.32;;;8.60;73.60;;;;;;4967441;28;20039;-77
2022/02/24 01:35:28;;;;;;;13.43;4.50;;;8.50;73.60;;;;;;4974052;28;20491;-77
2022/02/24 01:37:54;;;;;;;15.93;5.28;;;8.50;73.70;;;;;;4959028;28;20042;-77
2022/02/24 01:40:19;;;;;;;19.48;5.15;;;8.50;73.40;;;;;;4971128;28;20035;-78
2022/02/24 01:42:46;;;;;;;15.63;4.82;;;8.60;73.50;;;;;;4965286;28;20041;-78
2022/02/24 01:45:13;;;;;;;15.43;4.95;;;8.60;73.60;;;;;;4970503;28;20162;-80
2022/02/24 01:47:39;;;;;;;13.40;4.65;;;8.60;73.60;;;;;;4967188;28;20112;-79
2022/02/24 01:50:06;;;;;;;12.82;4.65;;;8.50;73.40;;;;;;4981432;28;20437;-78
2022/02/24 01:52:32;;;;;;;18.50;4.60;;;8.60;73.50;;;;;;4972091;28;20042;-78
2022/02/24 01:54:57;;;;;;;14.52;4.93;;;8.60;73.50;;;;;;4963479;28;20376;-78
2022/02/24 01:57:23;;;;;;;20.52;4.95;;;8.50;73.50;;;;;;4960312;28;20106;-76
2022/02/24 01:59:50;;;;;;;14.88;4.78;;;8.50;73.60;;;;;;4969821;28;20710;-77
2022/02/24 02:02:16;;;;;;;19.92;5.10;;;8.50;73.50;;;;;;4964267;28;20030;-78
2022/02/24 02:04:43;;;;;;;16.40;4.93;;;8.50;73.60;;;;;;4970132;28;20246;-79
2022/02/24 02:07:09;;;;;;;18.40;5.07;;;8.40;73.60;;;;;;4953518;28;20058;-80
2022/02/24 02:09:35;;;;;;;18.00;5.03;;;8.50;73.60;;;;;;4958753;28;20050;-78
2022/02/24 02:12:02;;;;;;;13.60;4.90;;;8.50;73.70;;;;;;4960365;28;20027;-77
2022/02/24 02:14:27;;;;;;;20.08;5.30;;;8.40;73.80;;;;;;4962742;28;20077;-78
2022/02/24 02:16:54;;;;;;;17.05;4.80;;;8.50;73.60;;;;;;4946481;28;20051;-77
2022/02/24 02:19:20;;;;;;;13.27;4.38;;;8.50;73.50;;;;;;4959973;28;20033;-78
2022/02/24 02:21:46;;;;;;;16.50;5.18;;;8.50;73.40;;;;;;4942924;28;20027;-79
2022/02/24 02:24:13;;;;;;;16.48;4.63;;;8.50;73.40;;;;;;4975310;28;20545;-78
2022/02/24 02:26:39;;;;;;;17.45;5.00;;;8.50;73.40;;;;;;4971770;28;20035;-80
2022/02/24 02:29:08;;;;;;;18.02;4.85;;;8.50;73.50;;;;;;4971856;28;20031;-79
2022/02/24 02:31:34;;;;;;;16.20;4.63;;;8.50;73.40;;;;;;4957807;28;20471;-79
2022/02/24 02:34:17;;;;;;;20.77;6.43;;;8.50;73.50;;;;;;4971183;28;20125;-78
2022/02/24 02:36:45;;;;;;;18.55;5.47;;;8.40;73.60;;;;;;4956996;28;20061;-78
2022/02/24 02:39:13;;;;;;;17.10;4.72;;;8.50;73.80;;;;;;4974349;28;20038;-80
2022/02/24 02:41:42;;;;;;;20.60;6.45;;;8.50;73.80;;;;;;4975743;28;20109;-77
2022/02/24 02:44:09;;;;;;;13.48;4.47;;;8.50;73.90;;;;;;4975366;28;20050;-77
2022/02/24 02:46:35;;;;;;;15.43;4.32;;;8.50;74.20;;;;;;4949278;28;20066;-78
2022/02/24 02:49:00;;;;;;;16.15;5.25;;;8.40;74.30;;;;;;4968772;28;20023;-80
2022/02/24 02:51:26;;;;;;;15.13;4.95;;;8.40;74.40;;;;;;4973669;28;20113;-78
2022/02/24 02:53:53;;;;;;;15.63;4.57;;;8.40;74.60;;;;;;4958097;28;20282;-79
2022/02/24 02:56:18;;;;;;;15.77;4.50;;;8.40;74.60;;;;;;4961350;28;20118;-79
2022/02/24 02:58:44;;;;;;;16.63;4.70;;;8.40;74.60;;;;;;4972786;28;20525;-77
2022/02/24 03:01:10;;;;;;;14.82;4.93;;;8.40;74.70;;;;;;4966701;28;20043;-78
2022/02/24 03:03:35;;;;;;;16.98;5.05;;;8.40;74.70;;;;;;4965577;28;20035;-80
2022/02/24 03:06:02;;;;;;;16.67;4.78;;;8.40;74.90;;;;;;4964067;28;20130;-78
2022/02/24 03:08:27;;;;;;;13.38;5.25;;;8.40;74.80;;;;;;4965863;28;20039;-80
2022/02/24 03:10:53;;;;;;;17.65;4.70;;;8.40;75.10;;;;;;4973314;28;20068;-76
2022/02/24 03:13:19;;;;;;;16.88;5.85;;;8.30;75.00;;;;;;4972159;28;20027;-76
2022/02/24 03:15:46;;;;;;;16.75;5.68;;;8.30;75.20;;;;;;4964533;28;20146;-77
2022/02/24 03:18:12;;;;;;;17.58;4.40;;;8.30;75.30;;;;;;4949785;28;20082;-80
2022/02/24 03:20:38;;;;;;;16.67;4.60;;;8.30;75.10;;;;;;4964987;28;20029;-77
2022/02/24 03:23:05;;;;;;;14.18;4.70;;;8.30;74.90;;;;;;4962824;28;20031;-78
2022/02/24 03:25:31;;;;;;;16.42;5.30;;;8.30;74.90;;;;;;4974947;28;20038;-77
2022/02/24 03:27:57;;;;;;;16.33;5.13;;;8.30;74.70;;;;;;4976094;28;20046;-78
2022/02/24 03:30:24;;;;;;;15.70;4.60;;;8.20;74.80;;;;;;4966805;28;20594;-77
2022/02/24 03:32:50;;;;;;;15.45;4.35;;;8.30;74.60;;;;;;4971161;28;20470;-79
2022/02/24 03:35:18;;;;;;;18.33;5.32;;;8.30;74.80;;;;;;4978139;28;20035;-78
2022/02/24 03:37:43;;;;;;;14.32;4.88;;;8.20;74.70;;;;;;4980901;28;20019;-77
2022/02/24 03:40:11;;;;;;;13.40;4.43;;;8.20;74.80;;;;;;4967082;28;20061;-77
2022/02/24 03:42:36;;;;;;;17.83;4.60;;;8.20;74.50;;;;;;4982840;28;20453;-78
2022/02/24 03:45:03;;;;;;;17.23;4.53;;;8.20;74.50;;;;;;4973627;28;20053;-77
2022/02/24 03:47:29;;;;;;;12.75;3.83;;;8.30;74.30;;;;;;4946265;28;20481;-77
2022/02/24 03:49:55;;;;;;;14.25;4.10;;;8.30;73.90;;;;;;4966970;28;20031;-77
2022/02/24 03:52:20;;;;;;;14.40;4.10;;;8.30;74.00;;;;;;4991760;28;20094;-80
2022/02/24 03:54:47;;;;;;;18.70;4.47;;;8.30;73.90;;;;;;4993755;28;20491;-79
2022/02/24 03:57:16;;;;;;;11.05;3.63;;;8.30;73.90;;;;;;4976300;28;20050;-77
2022/02/24 03:59:42;;;;;;;14.15;4.10;;;8.30;73.70;;;;;;4966981;28;20027;-81
2022/02/24 04:02:08;;;;;;;15.05;3.75;;;8.30;73.60;;;;;;4974639;28;20433;-79
2022/02/24 04:04:34;;;;;;;11.77;3.90;;;8.30;73.50;;;;;;4944996;28;20075;-78
2022/02/24 04:07:00;;;;;;;15.60;3.35;;;8.30;73.50;;;;;;4971776;28;20524;-77
2022/02/24 04:09:26;;;;;;;11.35;3.40;;;8.30;73.20;;;;;;4970305;28;20366;-79
2022/02/24 04:11:52;;;;;;;12.68;3.25;;;8.30;72.90;;;;;;4962863;28;20042;-77
2022/02/24 04:14:17;;;;;;;9.98;2.90;;;8.30;72.70;;;;;;4964436;28;20035;-79
2022/02/24 04:16:43;;;;;;;11.65;3.53;;;8.40;72.40;;;;;;4973117;28;20034;-79
2022/02/24 04:19:09;;;;;;;9.82;3.08;;;8.40;72.00;;;;;;4970285;28;20248;-79
2022/02/24 04:21:35;;;;;;;10.02;3.45;;;8.40;72.10;;;;;;4963435;28;20062;-77
2022/02/24 04:24:02;;;;;;;13.63;3.00;;;8.40;71.70;;;;;;4962209;28;20118;-78
2022/02/24 04:26:27;;;;;;;10.80;2.70;;;8.40;71.80;;;;;;4973373;28;20358;-77
2022/02/24 04:28:53;;;;;;;11.02;3.05;;;8.40;71.50;;;;;;4976656;28;20443;-76
2022/02/24 04:31:19;;;;;;;10.57;3.17;;;8.40;71.10;;;;;;4976909;28;20038;-78
2022/02/24 04:33:44;;;;;;;12.35;3.28;;;8.40;71.30;;;;;;4965676;28;20092;-79
2022/02/24 04:36:10;;;;;;;7.60;3.25;;;8.40;71.10;;;;;;4949699;28;20034;-81
2022/02/24 04:38:36;;;;;;;10.48;2.40;;;8.40;71.00;;;;;;4945240;28;20023;-76
2022/02/24 04:41:02;;;;;;;10.70;3.03;;;8.40;71.20;;;;;;4972630;28;20038;-77
2022/02/24 04:43:27;;;;;;;8.43;2.60;;;8.40;71.10;;;;;;4961581;28;20018;-80
2022/02/24 04:45:53;;;;;;;11.75;2.42;;;8.30;71.20;;;;;;4975397;28;20038;-76
2022/02/24 04:48:20;;;;;;;7.85;2.17;;;8.40;71.50;;;;;;4969331;28;20030;-77
2022/02/24 04:50:47;;;;;;;7.57;2.53;;;8.40;71.30;;;;;;4961897;28;20038;-78
2022/02/24 04:53:14;;;;;;;11.38;2.67;;;8.40;71.60;;;;;;4957717;28;20628;-77
2022/02/24 04:55:39;;;;;;;9.40;2.63;;;8.40;71.60;;;;;;4962144;28;20047;-77
2022/02/24 04:58:05;;;;;;;9.32;2.25;;;8.40;71.50;;;;;;4973560;28;20442;-75
2022/02/24 05:00:31;;;;;;;12.40;3.47;;;8.30;71.50;;;;;;4964269;28;20126;-78
2022/02/24 05:02:57;;;;;;;10.43;2.45;;;8.30;71.70;;;;;;4968379;28;20037;-78
2022/02/24 05:05:22;;;;;;;12.65;2.70;;;8.20;71.70;;;;;;4969959;28;20257;-77
2022/02/24 05:07:48;;;;;;;9.38;2.95;;;8.20;72.00;;;;;;4948090;28;20026;-76
2022/02/24 05:10:14;;;;;;;12.85;2.90;;;8.10;71.60;;;;;;4966817;28;20071;-78
2022/02/24 05:12:40;;;;;;;9.63;3.15;;;8.10;71.80;;;;;;4964969;28;20042;-77
2022/02/24 05:15:06;;;;;;;9.68;2.58;;;8.10;71.80;;;;;;4956050;28;20031;-76
2022/02/24 05:17:33;;;;;;;10.15;2.72;;;8.00;71.80;;;;;;4965697;28;20272;-76
2022/02/24 05:20:00;;;;;;;8.15;2.58;;;8.00;71.70;;;;;;4967319;28;20441;-80
2022/02/24 05:22:25;;;;;;;9.90;2.13;;;8.00;71.60;;;;;;4968215;28;20146;-78
2022/02/24 05:24:51;;;;;;;12.43;3.17;;;8.00;71.90;;;;;;4962290;28;20102;-77
2022/02/24 05:27:17;;;;;;;10.93;2.85;;;8.00;71.80;;;;;;4955349;28;20490;-78
2022/02/24 05:29:43;;;;;;;11.05;2.67;;;7.90;71.80;;;;;;4961210;28;20126;-76
2022/02/24 05:32:09;;;;;;;13.70;2.97;;;7.90;72.00;;;;;;4951925;28;20128;-80
2022/02/24 05:34:34;;;;;;;15.05;2.90;;;7.90;71.80;;;;;;4956870;28;20118;-81
2022/02/24 05:37:00;;;;;;;14.93;3.65;;;7.90;72.00;;;;;;4959279;28;20386;-79
2022/02/24 05:39:26;;;;;;;13.77;4.00;;;7.90;72.00;;;;;;4956068;28;20218;-80
2022/02/24 05:41:52;;;;;;;12.60;3.42;;;7.80;72.10;;;;;;4962176;28;20053;-78
2022/02/24 05:44:18;;;;;;;12.73;3.53;;;7.80;71.90;;;;;;4958172;28;20488;-78
2022/02/24 05:46:44;;;;;;;14.13;3.63;;;7.80;71.90;;;;;;4959644;28;20031;-79
2022/02/24 05:49:12;;;;;;;13.55;3.75;;;7.80;71.90;;;;;;4968663;28;20031;-79
2022/02/24 05:51:37;;;;;;;11.90;3.55;;;7.80;71.90;;;;;;4962761;28;20059;-79
2022/02/24 05:54:03;;;;;;;15.65;3.88;;;7.90;72.00;;;;;;4942503;28;20101;-79
2022/02/24 05:56:29;;;;;;;10.98;3.20;;;7.90;71.70;;;;;;4961167;28;20609;-81
2022/02/24 05:58:54;;;;;;;12.93;3.92;;;7.90;71.90;;;;;;4959553;28;20431;-79
2022/02/24 06:01:20;;;;;;;14.10;3.00;;;7.90;72.00;;;;;;4962655;28;20039;-82
2022/02/24 06:03:46;;;;;;;15.02;3.63;;;7.80;72.20;;;;;;4955733;28;20035;-83
2022/02/24 06:06:11;;;;;;;13.02;3.53;;;7.80;72.30;;;;;;4955055;28;20049;-82
2022/02/24 06:08:37;;;;;;;14.43;3.80;;;7.70;72.40;;;;;;4954268;28;20138;-78
2022/02/24 06:11:03;;;;;;;14.95;4.05;;;7.80;72.70;;;;;;4956215;28;20054;-80
2022/02/24 06:13:29;;;;;;;14.45;4.22;;;7.70;72.70;;;;;;4952014;28;20027;-81
2022/02/24 06:15:54;;;;;;;18.23;3.63;;;7.80;72.90;;;;;;4911273;28;1229313;-79
2022/02/24 06:18:20;;;;;;;14.50;3.80;;;7.80;73.00;;;;;;4956463;28;20114;-82
2022/02/24 06:20:46;;;;;;;18.55;4.40;;;7.80;73.20;;;;;;4967270;28;20153;-77
2022/02/24 06:23:13;;;;;;;13.10;3.50;;;7.70;73.20;;;;;;4957710;28;20084;-77
2022/02/24 06:25:38;;;;;;;14.38;4.00;;;7.70;73.60;;;;;;4965838;28;20039;-77
2022/02/24 06:28:04;;;;;;;13.73;4.18;;;7.80;73.60;;;;;;4958083;28;20041;-79
2022/02/24 06:30:30;;;;;;;15.63;4.13;;;7.70;73.60;;;;;;4967854;28;20444;-78
2022/02/24 06:32:55;;;;;;;15.85;4.35;;;7.70;73.70;;;;;;4958698;28;20031;-82
2022/02/24 06:35:24;;;;;;;17.60;3.83;;;7.70;73.80;;;;;;4968378;28;20039;-79
2022/02/24 06:37:49;;;;;;;18.75;4.70;;;7.70;74.10;;;;;;4973806;28;20688;-80
2022/02/24 06:40:15;;;;;;;14.70;5.65;;;7.70;74.10;;;;;;4962268;28;20049;-80
2022/02/24 06:42:41;;;;;;;13.82;4.47;;;7.70;74.20;;;;;;4961446;28;20118;-78
2022/02/24 06:45:07;;;;;;;12.88;4.20;;;7.70;74.40;;;;;;4972208;28;20069;-83
2022/02/24 06:47:34;;;;;;;12.88;4.15;;;7.70;74.50;;;;;;4974106;28;20037;-88
2022/02/24 06:50:00;;;;;;;19.23;5.05;;;7.70;74.60;;;;;;4964081;28;20038;-79
2022/02/24 06:52:26;;;;;;;21.50;6.00;;;7.70;74.80;;;;;;4956822;28;20067;-80
2022/02/24 06:54:52;;;;;;;16.83;4.65;;;7.70;75.10;;;;;;4964870;28;20030;-78
2022/02/24 06:57:17;;;;;;;19.48;4.93;;;7.60;75.30;;;;;;4961423;28;20038;-78
2022/02/24 06:59:44;;;;;;;15.20;4.55;;;7.60;75.40;;;;;;4956955;28;20117;-77
2022/02/24 07:02:10;;;;;;;14.70;4.43;;;7.60;75.60;;;;;;4964086;28;20461;-80
2022/02/24 07:04:35;;;;;;;15.85;4.57;;;7.60;75.90;;;;;;4962320;28;20046;-78
2022/02/24 07:07:02;;;;;;;18.45;4.78;;;7.60;75.90;;;;;;4947089;28;20073;-83
2022/02/24 07:09:28;;;;;;;18.17;4.75;;;7.60;75.90;;;;;;4963800;28;20050;-82
2022/02/24 07:11:54;;;;;;;15.88;6.05;;;7.60;76.00;;;;;;4956639;28;20406;-81
2022/02/24 07:14:20;;;;;;;16.95;5.05;;;7.60;76.20;;;;;;4966947;28;20025;-81
2022/02/24 07:16:46;;;;;;;15.20;4.90;;;7.60;76.40;;;;;;4968771;28;20202;-81
2022/02/24 07:19:12;;;;;;;13.95;4.85;;;7.60;76.50;;;;;;4969948;28;20528;-83
2022/02/24 07:21:38;;;;;;;17.58;4.97;;;7.60;76.60;;;;;;4966054;28;20027;-79
2022/02/24 07:24:04;;;;;;;17.65;7.72;;;7.60;76.40;;;;;;4965705;28;20851;-81
2022/02/24 07:26:30;;;;;;;23.40;6.15;;;7.60;76.40;;;;;;4959726;28;20873;-78
2022/02/24 07:28:55;;;;;;;15.18;5.28;;;7.70;76.40;;;;;;4977145;28;20039;-79
2022/02/24 07:31:21;;;;;;;17.63;4.80;;;7.70;76.20;;;;;;4975133;28;20039;-79
2022/02/24 07:33:48;;;;;;;16.80;5.20;;;7.60;76.30;;;;;;4954940;28;20038;-83
2022/02/24 07:36:14;;;;;;;16.33;4.53;;;7.70;76.20;;;;;;4957792;28;20374;-84
2022/02/24 07:38:40;;;;;;;16.45;4.75;;;7.70;76.20;;;;;;4965165;28;20379;-71
2022/02/24 07:41:06;;;;;;;21.20;5.75;;;7.70;76.20;;;;;;4965141;28;20043;-73
2022/02/24 07:43:32;;;;;;;19.30;5.25;;;7.70;76.00;;;;;;4958991;28;20067;-72
2022/02/24 07:45:59;;;;;;;14.70;4.55;;;7.70;76.00;;;;;;4952060;28;20046;-70
2022/02/24 07:48:27;;;;;;;16.35;4.90;;;7.70;76.00;;;;;;4948753;28;20499;-71
2022/02/24 07:50:54;;;;;;;15.00;5.07;;;7.80;75.90;;;;;;4947661;28;20046;-72
2022/02/24 07:53:20;;;;;;;18.27;4.93;;;7.80;75.70;;;;;;4958038;28;20589;-74
2022/02/24 07:55:47;;;;;;;16.63;4.78;;;7.80;75.90;;;;;;4965548;28;20038;-70
2022/02/24 07:58:14;;;;;;;16.83;4.80;;;7.80;75.90;;;;;;4954976;28;20027;-69
2022/02/24 08:00:42;;;;;;;13.95;4.65;;;7.80;75.80;;;;;;4962899;28;20046;-71
2022/02/24 08:03:09;;;;;;;14.75;4.75;;;7.80;75.80;;;;;;4961300;28;20038;-70
2022/02/24 08:05:35;;;;;;;18.05;4.82;;;7.80;75.80;;;;;;4961731;28;20489;-73
2022/02/24 08:08:00;;;;;;;18.20;4.90;;;7.70;75.70;;;;;;4967973;28;20101;-73
2022/02/24 08:10:26;;;;;;;15.88;5.05;;;7.80;75.60;;;;;;4976035;28;20030;-74
2022/02/24 08:12:52;;;;;;;16.58;4.18;;;7.80;75.80;;;;;;4962488;28;20027;-74
2022/02/24 08:15:22;;;;;;;19.70;5.57;;;7.80;75.80;;;;;;4964979;28;20039;-72
2022/02/24 08:17:49;;;;;;;16.58;5.68;;;7.80;75.70;;;;;;4969790;28;20101;-71
2022/02/24 08:20:15;;;;;;;16.92;4.72;;;7.80;75.30;;;;;;4975019;28;20031;-73
2022/02/24 08:22:43;;;;;;;18.98;4.60;;;7.90;75.40;;;;;;4963171;28;20041;-74
2022/02/24 08:25:12;;;;;;;19.35;4.93;;;7.90;75.30;;;;;;4968949;28;20034;-71
2022/02/24 08:27:39;;;;;;;14.23;4.40;;;7.90;75.40;;;;;;4970204;28;20060;-71
2022/02/24 08:30:07;;;;;;;17.50;4.45;;;7.80;75.70;;;;;;4972061;28;20027;-74
2022/02/24 08:32:32;;;;;;;18.02;4.80;;;7.90;75.60;;;;;;4979552;28;20039;-71
2022/02/24 08:34:58;;;;;;;22.88;4.72;;;8.10;75.50;;;;;;4971382;28;20034;-73
2022/02/24 08:37:25;;;;;;;15.32;4.53;;;8.20;75.00;;;;;;4965497;28;20039;-73
2022/02/24 08:39:51;;;;;;;18.42;5.38;;;8.30;74.80;;;;;;4970741;28;20151;-73
2022/02/24 08:42:17;;;;;;;15.57;5.00;;;8.60;74.30;;;;;;4964045;28;20132;-74
2022/02/24 08:44:44;;;;;;;20.55;5.63;;;8.70;73.60;;;;;;4970862;28;20051;-71
2022/02/24 08:47:11;;;;;;;17.33;4.50;;;9.00;73.00;;;;;;4974081;28;20046;-73
2022/02/24 08:49:37;;;;;;;18.67;4.43;;;9.10;72.10;;;;;;4971136;28;20042;-71
2022/02/24 08:52:04;;;;;;;18.33;4.70;;;9.30;71.70;;;;;;4961443;28;20921;-76
2022/02/24 08:54:32;;;;;;;15.73;4.90;;;9.50;70.80;;;;;;4970635;28;20086;-73
2022/02/24 08:56:59;;;;;;;16.52;4.38;;;9.60;70.50;;;;;;4958785;28;20042;-74
2022/02/24 08:59:25;;;;;;;13.85;4.80;;;9.70;70.10;;;;;;4963646;28;20401;-74
2022/02/24 09:01:51;;;;;;;14.50;4.95;;;9.80;69.60;;;;;;4968171;28;20039;-75
2022/02/24 09:04:18;;;;;;;18.55;5.50;;;9.90;69.70;;;;;;4950578;28;20577;-72
2022/02/24 09:06:44;;;;;;;17.73;6.30;;;10.00;69.10;;;;;;4958455;28;20035;-70
2022/02/24 09:09:10;;;;;;;20.13;5.53;;;10.10;69.40;;;;;;4961356;28;20065;-74
2022/02/24 09:11:36;;;;;;;16.17;5.20;;;10.10;69.10;;;;;;4977178;28;20114;-72
2022/02/24 09:14:02;;;;;;;17.83;5.57;;;10.30;68.50;;;;;;4966156;28;20042;-74
2022/02/24 09:16:28;;;;;;;19.73;6.60;;;10.30;68.30;;;;;;4968124;28;20050;-72
2022/02/24 09:18:54;;;;;;;15.63;5.45;;;10.40;67.90;;;;;;4970956;28;20513;-72
2022/02/24 09:21:20;;;;;;;17.63;5.70;;;10.40;68.10;;;;;;4959031;28;20034;-71
2022/02/24 09:23:46;;;;;;;15.40;4.07;;;10.60;67.90;;;;;;4942790;28;20067;-70
2022/02/24 09:26:12;;;;;;;18.13;4.97;;;10.60;67.80;;;;;;4947165;28;20118;-70
2022/02/24 09:28:39;;;;;;;17.73;5.38;;;10.60;67.90;;;;;;4948922;28;20035;-74
2022/02/24 09:31:05;;;;;;;16.35;5.35;;;10.70;67.80;;;;;;4946610;28;20066;-73
2022/02/24 09:33:31;;;;;;;15.38;4.35;;;10.70;68.00;;;;;;4952283;28;20039;-75
2022/02/24 09:35:57;;;;;;;17.60;4.25;;;10.90;67.20;;;;;;4949448;28;20026;-74
2022/02/24 09:38:24;;;;;;;13.30;5.00;;;11.00;66.90;;;;;;4949364;28;20042;-73
2022/02/24 09:40:53;;;;;;;13.98;3.45;;;11.00;67.20;;;;;;4947263;28;20037;-72
2022/02/24 09:43:20;;;;;;;13.13;3.63;;;11.10;67.00;;;;;;4947467;28;20075;-74
2022/02/24 09:45:49;;;;;;;15.10;3.30;;;11.10;67.10;;;;;;4961787;28;20057;-72
2022/02/24 09:48:20;;;;;;;12.30;3.75;;;11.10;66.60;;;;;;4962657;28;20076;-75
2022/02/24 09:50:52;;;;;;;15.77;3.95;;;11.10;66.60;;;;;;4947553;28;20058;-73
2022/02/24 09:53:19;;;;;;;13.05;3.53;;;11.30;67.10;;;;;;4950283;28;20073;-76
2022/02/24 09:55:45;;;;;;;13.02;3.38;;;11.30;66.10;;;;;;4949268;28;20023;-74
2022/02/24 09:58:11;;;;;;;15.40;3.88;;;11.10;66.70;;;;;;4948215;28;20077;-75
2022/02/24 10:00:37;;;;;;;14.55;3.65;;;11.20;66.90;;;;;;4964047;28;20502;-74
2022/02/24 10:03:23;;;;;;;11.95;4.15;;;11.40;66.80;;;;;;4962262;28;20092;-75
2022/02/24 10:05:49;;;;;;;11.38;3.60;;;11.40;65.80;;;;;;4962018;28;20039;-74
2022/02/24 10:08:15;;;;;;;13.73;3.95;;;11.40;65.70;;;;;;4966432;28;20478;-74
2022/02/24 10:10:43;;;;;;;12.30;3.88;;;11.60;66.10;;;;;;4979227;28;20039;-74
2022/02/24 10:13:09;;;;;;;16.17;3.78;;;11.80;64.90;;;;;;4972688;28;20034;-75
2022/02/24 10:15:38;;;;;;;15.55;3.95;;;12.00;64.40;;;;;;4962799;28;20101;-73
2022/02/24 10:18:09;;;;;;;12.75;3.70;;;12.20;63.80;;;;;;4969880;28;20055;-75
2022/02/24 10:20:49;;;;;;;9.30;3.20;;;12.20;63.70;;;;;;4952779;28;20121;-74
2022/02/24 10:23:16;;;;;;;14.63;3.40;;;12.10;63.70;;;;;;4978655;28;20031;-73
2022/02/24 10:25:47;;;;;;;10.38;3.22;;;11.90;64.60;;;;;;4964297;28;20034;-75
2022/02/24 10:28:47;;;;;;;8.90;2.80;;;11.80;65.20;;;;;;4958304;28;20038;-75
2022/02/24 10:31:15;;;;;;;11.43;3.20;;;11.60;65.10;;;;;;4959069;28;20047;-74
2022/02/24 10:33:44;;;;;;;10.40;3.35;;;11.40;65.50;;;;;;4956001;28;20164;-74
2022/02/24 10:36:25;;;;;;;14.15;4.05;;;11.50;65.80;;;;;;4947724;28;20054;-76
2022/02/24 10:38:59;;;;;;;11.30;3.25;;;11.60;65.60;;;;;;4950362;28;20070;-73
2022/02/24 10:41:49;;;;;;;11.07;2.92;;;11.90;65.20;;;;;;4953059;28;20039;-73
2022/02/24 10:44:26;;;;;;;12.07;4.30;;;12.20;64.40;;;;;;4958860;28;20034;-74
2022/02/24 10:47:03;;;;;;;9.77;2.90;;;12.20;64.00;;;;;;4951767;28;20046;-73
2022/02/24 10:49:36;;;;;;;9.45;3.42;;;12.00;64.30;;;;;;4969296;28;20041;-75
2022/02/24 10:52:28;;;;;;;11.65;3.33;;;11.80;64.50;;;;;;4976135;28;20169;-73
2022/02/24 10:55:00;;;;;;;13.25;3.45;;;11.60;65.20;;;;;;4962731;28;20049;-73
2022/02/24 10:57:27;;;;;;;12.88;3.78;;;11.60;65.80;;;;;;4964143;28;20504;-75
2022/02/24 10:59:55;;;;;;;10.43;3.67;;;11.60;65.90;;;;;;4953455;28;20213;-74
2022/02/24 11:02:22;;;;;;;9.90;3.88;;;11.80;65.60;;;;;;4968700;28;20100;-73
2022/02/24 11:04:49;;;;;;;11.02;3.50;;;11.90;65.50;;;;;;4972056;28;20049;-75
2022/02/24 11:07:16;;;;;;;11.20;2.97;;;12.00;65.10;;;;;;4967507;28;20888;-71
2022/02/24 11:09:43;;;;;;;11.80;3.20;;;11.80;64.80;;;;;;4965246;28;20077;-74
2022/02/24 11:12:13;;;;;;;13.75;3.50;;;11.60;65.60;;;;;;4973728;28;20037;-72
2022/02/24 11:14:40;;;;;;;9.68;2.67;;;11.60;66.60;;;;;;4968922;28;20113;-74
2022/02/24 11:17:10;;;;;;;16.42;4.00;;;11.50;66.90;;;;;;4972488;28;20046;-73
2022/02/24 11:19:37;;;;;;;12.40;3.47;;;11.30;67.20;;;;;;4966989;28;20051;-74
2022/02/24 11:22:05;;;;;;;10.55;3.25;;;11.20;67.80;;;;;;4947578;28;20126;-75
2022/02/24 11:24:30;;;;;;;9.68;3.30;;;11.10;68.30;;;;;;4951831;28;20431;-74
2022/02/24 11:27:21;;;;;;;9.85;3.00;;;11.10;68.80;;;;;;4972932;28;20054;-74
2022/02/24 11:30:12;;;;;;;12.00;2.88;;;11.10;70.10;;;;;;4962672;28;20042;-74
2022/02/24 11:32:45;;;;;;;15.00;3.88;;;11.00;70.80;;;;;;4953231;28;20045;-75
2022/02/24 11:35:14;;;;;;;11.60;3.20;;;10.90;72.20;;;;;;4953699;28;20047;-76
2022/02/24 11:37:41;;;;;;;14.52;3.25;;;10.90;72.70;;;;;;4954200;28;20113;-72
2022/02/24 11:40:27;;;;;;;13.00;4.40;;;10.80;72.80;;;;;;4952222;28;20034;-75
2022/02/24 11:43:19;;;;;;;13.18;3.88;;;10.60;74.20;;;;;;4954418;28;20537;-74
2022/02/24 11:46:07;;;;;;;9.85;3.38;;;10.60;75.80;;;;;;4952229;28;20105;-73
2022/02/24 11:48:37;;;;;;;13.30;3.78;;;10.50;76.30;;;;;;4951730;28;20070;-72
2022/02/24 11:51:08;;;;;;;14.60;3.90;;;10.30;77.20;;;;;;4953084;28;20077;-72
2022/02/24 11:53:39;;;;;;;11.82;3.80;;;10.20;78.80;;;;;;4955411;28;20561;-74
2022/02/24 11:56:15;;;;;;;10.18;3.45;;;10.20;79.80;;;;;;4941621;28;20145;-72
2022/02/24 11:59:02;;;;;;;14.65;4.07;;;10.10;80.50;;;;;;4952541;28;20043;-74
2022/02/24 12:01:52;;;;;;;16.60;4.90;;;9.90;81.70;;;;;;4955672;28;20582;-73
2022/02/24 12:04:27;;;;;;;15.18;5.45;;;9.80;82.40;;;;;;4951222;28;20100;-72
2022/02/24 12:06:56;;;;;;;18.67;5.97;;;9.80;83.10;;;;;;4938231;28;20054;-72
2022/02/24 12:09:32;;;;;;;10.38;4.75;;;9.70;83.30;;;;;;4951576;28;20057;-73
2022/02/24 12:12:23;;;;;;;15.73;5.75;;;9.70;83.70;;;;;;4953947;28;20116;-74
2022/02/24 12:14:57;;;;;;;19.15;6.63;;;9.70;84.10;;;;;;4964003;28;20440;-72
2022/02/24 12:17:28;;;;;;;21.17;5.65;;;9.70;84.70;;;;;;4954969;28;20054;-73
2022/02/24 12:20:00;;;;;;;14.98;5.32;;;9.70;84.60;;;;;;4953335;28;20046;-73
2022/02/24 12:22:29;;;;;;;16.60;5.15;;;9.60;84.90;;;;;;4949390;28;20043;-73
2022/02/24 12:25:14;;;;;;;12.52;4.50;;;9.60;85.20;;;;;;4954722;28;20320;-74
2022/02/24 12:27:55;;;;;;;13.48;4.55;;;9.50;85.60;;;;;;4951485;28;20059;-73
2022/02/24 12:30:25;;;;;;;11.00;4.50;;;9.50;85.90;;;;;;4951816;28;20053;-74
2022/02/24 12:33:04;;;;;;;16.25;4.72;;;9.40;86.40;;;;;;4950322;28;20027;-74
2022/02/24 12:35:36;;;;;;;5.32;1.88;;;9.30;86.40;;;;;;4952648;28;20057;-73
2022/02/24 12:38:03;;;;;;;4.00;1.30;;;7.10;82.10;;;;;;4948902;28;20058;-74
2022/02/24 12:41:02;;;;;;;1.10;1.00;;;5.50;84.30;;;;;;4954981;28;20065;-75
2022/02/24 12:43:28;;;;;;;1.80;1.10;;;5.00;86.70;;;;;;4917656;28;21220;-74
2022/02/24 12:45:54;;;;;;;2.10;1.30;;;4.80;87.40;;;;;;4956286;28;20062;-74
2022/02/24 12:48:20;;;;;;;4.93;1.25;;;4.70;87.60;;;;;;4946584;28;20039;-73